Lloyd Harbor, New York
Current Conditions -  °F | °C
As of 6:53 PM on Thursday 18 Dec 2014 (Local Time) from KFRG Reporting Station
Clear Clear  
Wind Chill: 30°   Ceiling: Unl
Heat Index: 38°   Visibility: 10mi
Dew Point: 26°   Wind: 13mph
Humidity: 62%   Direction: 330°NNW
Pressure: 29.94"   Gusts: NA
Location:  40.8966°N, 73.4362°W
Report Text: KFRG 182353Z 33011KT 10SM CLR 03/M03 A2994 RMK AO2 SLP138 T00331033 10061 20033 50001
Loading
Personal Weather Stations






























Interactive Weather Map New forecast layout! Learn more

10-Day Weather Forecast

Advertisements
Track Severe Weather on mobile